Time;durP1;ratioP1;P1;durP2;ratioP2;P2;SDS_P1;SDS_P2;PMS_P1;PMS_P2;Temp;Humidity;BMP_temperature;BMP_pressure;BME280_temperature;BME280_humidity;BME280_pressure;Samples;Min_cycle;Max_cycle;Signal;HPM_P1;HPM_P2
2023/11/19 00:00:12;;;;;;;41.95;19.17;;;;;;;-7.67;74.76;99946.63;5011508;28;20404;-62
2023/11/19 00:02:38;;;;;;;39.20;19.30;;;;;;;-7.65;74.93;99946.50;5011312;28;20042;-62
2023/11/19 00:05:05;;;;;;;45.55;21.55;;;;;;;-7.64;74.32;99940.44;5011543;28;20400;-61
2023/11/19 00:07:31;;;;;;;54.00;22.52;;;;;;;-7.75;73.69;99936.03;5010192;28;20042;-61
2023/11/19 00:09:57;;;;;;;57.47;24.42;;;;;;;-7.77;73.05;99935.31;5011206;28;20053;-62
2023/11/19 00:12:22;;;;;;;74.18;28.05;;;;;;;-7.85;73.37;99932.47;5011359;28;20038;-59
2023/11/19 00:14:48;;;;;;;43.88;20.40;;;;;;;-7.86;74.60;99935.94;5011138;28;20045;-63
2023/11/19 00:17:14;;;;;;;61.97;25.20;;;;;;;-7.77;74.43;99938.69;5011240;28;20127;-61
2023/11/19 00:19:39;;;;;;;81.47;30.88;;;;;;;-7.73;72.99;99938.47;5011108;28;20096;-62
2023/11/19 00:22:05;;;;;;;50.22;24.30;;;;;;;-7.69;72.27;99938.19;5011239;28;20049;-59
2023/11/19 00:24:31;;;;;;;46.38;20.25;;;;;;;-7.67;73.68;99938.91;5011405;28;20046;-62
2023/11/19 00:26:57;;;;;;;58.38;25.98;;;;;;;-7.71;71.08;99931.50;5011063;28;20037;-61
2023/11/19 00:29:23;;;;;;;71.00;25.92;;;;;;;-7.75;71.60;99925.75;5010050;28;20042;-62
2023/11/19 00:31:49;;;;;;;55.15;23.58;;;;;;;-7.78;70.42;99931.09;5010963;28;20080;-60
2023/11/19 00:34:14;;;;;;;51.67;22.88;;;;;;;-7.75;70.51;99930.06;5010637;28;20088;-62
2023/11/19 00:36:40;;;;;;;50.95;24.23;;;;;;;-7.67;70.67;99928.59;5010336;28;20034;-60
2023/11/19 00:39:06;;;;;;;58.90;26.23;;;;;;;-7.65;70.14;99925.91;5010432;28;20048;-62
2023/11/19 00:41:31;;;;;;;58.00;26.48;;;;;;;-7.59;69.51;99928.91;5011866;28;20087;-62
2023/11/19 00:43:57;;;;;;;50.42;24.80;;;;;;;-7.65;68.61;99918.19;5010435;28;20049;-60
2023/11/19 00:46:23;;;;;;;53.35;24.05;;;;;;;-7.74;69.17;99917.06;5012845;28;20396;-63
2023/11/19 00:48:48;;;;;;;57.47;23.50;;;;;;;-7.82;69.78;99920.19;5012559;28;20092;-61
2023/11/19 00:51:14;;;;;;;54.20;21.27;;;;;;;-7.82;71.00;99914.25;5013618;28;20432;-61
2023/11/19 00:53:40;;;;;;;43.17;22.88;;;;;;;-7.88;70.46;99915.47;5013112;28;20491;-61
2023/11/19 00:56:06;;;;;;;59.55;24.35;;;;;;;-7.87;70.88;99914.53;5011913;28;20042;-62
2023/11/19 00:58:32;;;;;;;46.15;22.88;;;;;;;-7.94;70.75;99913.34;5014261;28;20124;-62
2023/11/19 01:00:58;;;;;;;52.22;24.90;;;;;;;-8.09;70.13;99907.50;5014109;28;20603;-62
2023/11/19 01:03:24;;;;;;;52.40;23.35;;;;;;;-8.12;70.21;99905.13;5012688;28;20042;-60
2023/11/19 01:05:52;;;;;;;48.85;23.05;;;;;;;-8.06;70.53;99904.72;5013172;28;20115;-62
2023/11/19 01:08:17;;;;;;;50.30;22.30;;;;;;;-8.11;70.51;99903.38;5012991;28;20042;-60
2023/11/19 01:10:43;;;;;;;46.78;22.33;;;;;;;-8.14;71.00;99895.88;5014221;28;20534;-61
2023/11/19 01:13:10;;;;;;;47.70;21.77;;;;;;;-8.06;71.07;99891.84;5012832;28;20065;-60
2023/11/19 01:15:36;;;;;;;52.92;21.13;;;;;;;-7.97;70.92;99885.25;5014132;28;20046;-60
2023/11/19 01:18:04;;;;;;;46.60;22.48;;;;;;;-7.91;70.09;99879.66;5012703;28;20513;-59
2023/11/19 01:20:34;;;;;;;47.88;22.27;;;;;;;-7.88;70.53;99878.59;5012664;28;20050;-61
2023/11/19 01:23:00;;;;;;;54.08;22.58;;;;;;;-7.93;70.73;99870.41;5013978;28;20088;-62
2023/11/19 01:25:26;;;;;;;41.90;22.27;;;;;;;-7.93;70.48;99872.97;5012523;28;20423;-63
2023/11/19 01:27:51;;;;;;;51.35;22.48;;;;;;;-8.05;71.36;99843.78;5014039;28;20081;-62
2023/11/19 01:30:17;;;;;;;54.45;22.13;;;;;;;-7.72;70.79;99881.75;5013838;28;20052;-63
2023/11/19 01:32:43;;;;;;;52.90;23.73;;;;;;;-7.57;69.84;99878.09;5013666;28;20085;-61
2023/11/19 01:35:09;;;;;;;58.00;21.67;;;;;;;-7.43;69.57;99879.69;5012549;28;20136;-62
2023/11/19 01:37:35;;;;;;;54.95;24.80;;;;;;;-7.35;70.15;99874.81;5012222;28;20507;-61
2023/11/19 01:40:04;;;;;;;58.00;24.08;;;;;;;-7.21;68.87;99862.66;5013164;28;20049;-62
2023/11/19 01:42:30;;;;;;;60.42;23.75;;;;;;;-7.14;68.54;99869.03;5012198;28;20517;-61
2023/11/19 01:44:59;;;;;;;58.15;23.95;;;;;;;-7.13;68.54;99873.25;5013538;28;20042;-62
2023/11/19 01:47:29;;;;;;;49.65;22.80;;;;;;;-7.14;68.76;99869.84;5012225;28;20041;-61
2023/11/19 01:49:56;;;;;;;47.55;21.92;;;;;;;-7.02;68.31;99880.19;5012210;28;20042;-61
2023/11/19 01:52:22;;;;;;;54.92;22.73;;;;;;;-6.99;68.56;99869.66;5013321;28;20506;-61
2023/11/19 01:54:48;;;;;;;57.38;24.25;;;;;;;-6.89;68.93;99874.00;4979230;28;20049;-65
2023/11/19 01:57:14;;;;;;;59.33;24.40;;;;;;;-6.76;68.50;99879.09;5011616;28;20052;-62
2023/11/19 01:59:41;;;;;;;58.50;24.75;;;;;;;-6.65;68.47;99870.53;5012030;28;20049;-63
2023/11/19 02:02:07;;;;;;;59.28;24.70;;;;;;;-6.58;68.62;99858.84;5011814;28;20050;-61
2023/11/19 02:04:34;;;;;;;55.10;24.92;;;;;;;-6.53;67.83;99861.06;5011616;28;20472;-62
2023/11/19 02:07:00;;;;;;;60.33;25.33;;;;;;;-6.50;67.79;99864.25;5013184;28;20225;-63
2023/11/19 02:09:26;;;;;;;54.33;24.83;;;;;;;-6.44;67.91;99861.19;5013206;28;20612;-61
2023/11/19 02:11:53;;;;;;;52.30;24.52;;;;;;;-6.40;68.04;99859.19;5013072;28;20124;-61
2023/11/19 02:14:24;;;;;;;59.55;26.25;;;;;;;-6.36;67.76;99855.44;5011773;28;20041;-61
2023/11/19 02:16:50;;;;;;;55.50;23.08;;;;;;;-6.24;68.51;99858.81;5011807;28;20108;-61
2023/11/19 02:19:15;;;;;;;62.35;26.08;;;;;;;-6.15;68.18;99858.13;5012777;28;20049;-62
2023/11/19 02:22:01;;;;;;;45.22;21.08;;;;;;;-6.08;69.52;99858.47;4998106;28;20088;-62
2023/11/19 02:24:29;;;;;;;41.58;19.05;;;;;;;-6.06;69.06;99857.44;5010306;28;20046;-61
2023/11/19 02:27:24;;;;;;;52.45;24.00;;;;;;;-5.96;68.16;99857.53;4994760;28;20049;-62
2023/11/19 02:29:49;;;;;;;52.42;23.95;;;;;;;-5.88;68.30;99868.03;4995305;28;20053;-61
2023/11/19 02:32:15;;;;;;;54.00;24.67;;;;;;;-5.91;68.01;99854.53;5012457;28;20057;-61
2023/11/19 02:34:41;;;;;;;45.90;23.13;;;;;;;-5.82;67.67;99864.16;5011017;28;20512;-60
2023/11/19 02:37:08;;;;;;;49.78;23.30;;;;;;;-5.84;67.20;99859.09;5011048;28;20397;-61
2023/11/19 02:39:33;;;;;;;39.40;20.10;;;;;;;-5.92;69.29;99864.03;5012490;28;20049;-62
2023/11/19 02:41:59;;;;;;;46.03;21.25;;;;;;;-5.85;69.40;99852.31;5012362;28;20059;-61
2023/11/19 02:44:28;;;;;;;46.58;23.33;;;;;;;-5.76;68.41;99850.75;5011189;28;20093;-63
2023/11/19 02:46:54;;;;;;;49.80;22.85;;;;;;;-5.75;68.69;99853.22;4994931;28;20381;-63
2023/11/19 02:49:20;;;;;;;41.15;19.48;;;;;;;-5.75;69.30;99848.03;5012485;28;20061;-62
2023/11/19 02:51:46;;;;;;;31.75;18.27;;;;;;;-5.66;68.99;99843.91;4995421;28;20046;-61
2023/11/19 02:54:12;;;;;;;52.10;22.30;;;;;;;-5.53;68.43;99847.19;4994593;28;20045;-61
2023/11/19 02:56:42;;;;;;;45.78;24.02;;;;;;;-5.52;68.31;99855.75;5013058;28;20033;-62
2023/11/19 02:59:11;;;;;;;;;;;;;;;-5.48;67.98;99846.78;5013696;28;20052;-59
2023/11/19 03:01:37;;;;;;;45.33;19.75;;;;;;;-5.73;67.76;99838.44;5011539;28;20019;-61
2023/11/19 03:04:03;;;;;;;53.50;24.33;;;;;;;-5.69;68.59;99833.00;5011141;28;20184;-61
2023/11/19 03:06:29;;;;;;;47.28;22.20;;;;;;;-5.70;68.88;99837.38;5011115;28;20143;-61
2023/11/19 03:08:55;;;;;;;45.67;21.95;;;;;;;-5.66;69.18;99841.34;5010228;28;20491;-61
2023/11/19 03:11:21;;;;;;;46.60;21.70;;;;;;;-5.65;68.45;99837.78;5012091;28;20128;-61
2023/11/19 03:13:47;;;;;;;47.10;23.67;;;;;;;-5.62;69.60;99834.16;4993177;28;20154;-60
2023/11/19 03:16:13;;;;;;;50.95;24.27;;;;;;;-5.53;68.98;99839.44;5010158;28;20092;-60
2023/11/19 03:18:39;;;;;;;47.22;23.35;;;;;;;-5.50;68.89;99838.34;5011726;28;20040;-58
2023/11/19 03:21:07;;;;;;;46.95;22.98;;;;;;;-5.49;68.66;99832.25;5035089;28;20415;-60
2023/11/19 03:23:33;;;;;;;48.83;23.35;;;;;;;-5.48;69.30;99832.09;5010265;28;20046;-60
2023/11/19 03:26:03;;;;;;;54.00;25.15;;;;;;;-5.51;68.61;99823.78;5010965;28;20038;-59
2023/11/19 03:28:29;;;;;;;49.90;21.52;;;;;;;-5.56;68.78;99833.66;5011806;28;20049;-59
2023/11/19 03:30:55;;;;;;;48.83;24.45;;;;;;;-5.53;69.26;99826.50;5011405;28;20179;-60
2023/11/19 03:33:20;;;;;;;50.35;23.42;;;;;;;-5.53;69.34;99823.06;5010550;28;20042;-60
2023/11/19 03:35:46;;;;;;;53.08;24.10;;;;;;;-5.56;69.14;99828.50;5011493;28;20130;-61
2023/11/19 03:38:12;;;;;;;54.70;23.45;;;;;;;-5.51;69.79;99823.78;5010387;28;20042;-59
2023/11/19 03:40:39;;;;;;;48.30;24.75;;;;;;;-5.45;69.39;99827.63;5011454;28;20128;-60
2023/11/19 03:43:05;;;;;;;42.67;23.50;;;;;;;-5.39;69.42;99827.13;5011753;28;20091;-60
2023/11/19 03:45:31;;;;;;;58.55;25.35;;;;;;;-5.39;69.58;99827.97;5011383;28;20073;-60
2023/11/19 03:47:56;;;;;;;58.00;25.67;;;;;;;-5.39;69.64;99820.22;5010363;28;20613;-60
2023/11/19 03:50:22;;;;;;;45.78;23.35;;;;;;;-5.43;69.22;99818.00;5011693;28;20427;-60
2023/11/19 03:52:48;;;;;;;48.58;23.83;;;;;;;-5.38;69.46;99814.13;4994036;28;20570;-59
2023/11/19 03:55:14;;;;;;;46.67;23.50;;;;;;;-5.40;69.25;99807.44;5011174;28;20046;-60
2023/11/19 03:57:39;;;;;;;49.85;22.95;;;;;;;-5.45;69.97;99812.97;5011558;28;20045;-59
2023/11/19 04:00:09;;;;;;;45.80;23.77;;;;;;;-5.41;69.70;99804.03;5009852;28;20049;-61
2023/11/19 04:02:39;;;;;;;49.83;23.98;;;;;;;-5.38;69.98;99808.94;5009709;28;20045;-59
2023/11/19 04:05:06;;;;;;;52.13;24.65;;;;;;;-5.40;69.43;99815.19;5011338;28;20069;-63
2023/11/19 04:07:32;;;;;;;50.97;23.95;;;;;;;-5.39;69.81;99806.47;5011045;28;20074;-61
2023/11/19 04:09:58;;;;;;;51.38;23.58;;;;;;;-5.34;69.84;99800.00;5011091;28;20508;-60
2023/11/19 04:12:24;;;;;;;46.83;23.90;;;;;;;-5.30;69.62;99793.63;5009810;28;20077;-61
2023/11/19 04:14:50;;;;;;;44.08;23.25;;;;;;;-5.39;69.61;99786.63;5011319;28;20062;-61
2023/11/19 04:17:17;;;;;;;49.60;23.52;;;;;;;-5.43;69.91;99782.66;5009801;28;20046;-61
2023/11/19 04:19:43;;;;;;;46.78;22.58;;;;;;;-5.51;69.88;99772.13;5013148;28;20042;-61
2023/11/19 04:22:09;;;;;;;47.30;24.60;;;;;;;-5.48;70.28;99775.28;5015032;28;20052;-61
2023/11/19 04:24:35;;;;;;;46.10;24.05;;;;;;;-5.47;70.24;99773.53;5015149;28;20061;-62
2023/11/19 04:27:01;;;;;;;52.35;23.63;;;;;;;-5.41;70.30;99778.19;5014932;28;20084;-59
2023/11/19 04:29:27;;;;;;;50.40;23.10;;;;;;;-5.43;69.30;99780.06;5015035;28;20530;-60
2023/11/19 04:31:53;;;;;;;44.97;21.58;;;;;;;-5.49;69.61;99778.00;5014318;28;20057;-60
2023/11/19 04:34:19;;;;;;;48.28;23.30;;;;;;;-5.48;70.15;99779.63;5014952;28;20063;-61
2023/11/19 04:36:44;;;;;;;37.42;21.33;;;;;;;-5.46;70.58;99774.34;5014200;28;20092;-60
2023/11/19 04:39:15;;;;;;;43.97;21.75;;;;;;;-5.38;70.44;99779.69;5014681;28;20069;-61
2023/11/19 04:41:51;;;;;;;53.30;23.48;;;;;;;-5.24;70.29;99784.53;5013296;28;20041;-61
2023/11/19 04:44:17;;;;;;;39.58;22.08;;;;;;;-5.28;69.30;99785.75;5013126;28;20583;-61
2023/11/19 04:46:46;;;;;;;46.30;22.73;;;;;;;-5.25;69.44;99790.66;5013287;28;20052;-61
2023/11/19 04:49:16;;;;;;;47.07;23.67;;;;;;;-5.19;69.67;99797.91;4996656;28;20504;-62
2023/11/19 04:51:44;;;;;;;45.75;22.48;;;;;;;-5.15;69.70;99790.72;5014477;28;20380;-61
2023/11/19 04:54:10;;;;;;;52.90;22.35;;;;;;;-5.26;69.65;99781.28;5014498;28;20407;-61
2023/11/19 04:56:39;;;;;;;48.72;20.75;;;;;;;-5.28;69.74;99796.09;5014026;28;20515;-60
2023/11/19 04:59:05;;;;;;;39.38;21.10;;;;;;;-5.17;70.39;99796.03;5014466;28;20458;-61
2023/11/19 05:01:32;;;;;;;48.38;21.63;;;;;;;-5.10;69.69;99796.34;5014176;28;20042;-61
2023/11/19 05:04:01;;;;;;;43.10;20.85;;;;;;;-5.13;69.77;99804.34;5013182;28;20046;-61
2023/11/19 05:06:31;;;;;;;40.97;20.58;;;;;;;-5.10;69.48;99797.16;5014016;28;20538;-59
2023/11/19 05:09:01;;;;;;;41.25;21.08;;;;;;;-5.14;69.72;99802.72;5012689;28;20065;-61
2023/11/19 05:11:28;;;;;;;45.30;21.35;;;;;;;-5.12;69.92;99785.28;5012496;28;20066;-60
2023/11/19 05:13:54;;;;;;;47.65;21.20;;;;;;;-5.05;70.16;99776.91;5014331;28;20594;-62
2023/11/19 05:16:20;;;;;;;39.88;19.55;;;;;;;-4.99;69.51;99791.09;5012691;28;20082;-63
2023/11/19 05:18:46;;;;;;;50.75;19.50;;;;;;;-4.94;68.85;99804.47;5013253;28;20034;-62
2023/11/19 05:21:13;;;;;;;42.67;22.15;;;;;;;-4.91;69.36;99798.19;5012209;28;20050;-63
2023/11/19 05:23:39;;;;;;;51.13;23.05;;;;;;;-4.94;68.84;99804.47;5011566;28;20048;-62
2023/11/19 05:26:05;;;;;;;49.97;21.95;;;;;;;-4.94;69.54;99799.31;5012658;28;20443;-63
2023/11/19 05:28:30;;;;;;;35.72;19.63;;;;;;;-4.96;69.54;99800.38;5012691;28;20096;-61
2023/11/19 05:30:57;;;;;;;56.05;24.77;;;;;;;-4.92;69.80;99806.91;4994125;28;20423;-60
2023/11/19 05:33:23;;;;;;;38.17;20.80;;;;;;;-4.82;69.21;99794.88;5012791;28;20042;-60
2023/11/19 05:35:49;;;;;;;35.05;19.25;;;;;;;-4.77;68.79;99799.63;5013418;28;20411;-62
2023/11/19 05:38:14;;;;;;;43.47;19.42;;;;;;;-4.78;69.29;99792.84;4995977;28;20049;-63
2023/11/19 05:40:41;;;;;;;42.60;18.20;;;;;;;-4.67;68.11;99798.75;5012434;28;20045;-61
2023/11/19 05:43:07;;;;;;;34.40;19.08;;;;;;;-4.72;68.05;99800.09;5013246;28;20054;-62
2023/11/19 05:45:32;;;;;;;35.08;18.80;;;;;;;-4.71;68.99;99806.88;5013663;28;20048;-63
2023/11/19 05:47:58;;;;;;;34.85;18.42;;;;;;;-4.72;68.25;99806.06;5011829;28;20560;-63
2023/11/19 05:50:24;;;;;;;30.98;17.35;;;;;;;-4.65;68.59;99806.38;5011985;28;20045;-62
2023/11/19 05:52:50;;;;;;;39.78;19.17;;;;;;;-4.62;67.74;99806.09;5012145;28;20034;-61
2023/11/19 05:55:16;;;;;;;41.97;21.05;;;;;;;-4.55;67.66;99807.25;5010338;28;20038;-62
2023/11/19 05:57:42;;;;;;;45.05;19.85;;;;;;;-4.48;67.07;99797.19;5011420;28;20545;-61
2023/11/19 06:00:10;;;;;;;41.60;20.15;;;;;;;-4.48;67.59;99800.59;5012905;28;20049;-61
2023/11/19 06:02:39;;;;;;;41.78;19.80;;;;;;;-4.42;67.07;99799.25;5010105;28;20492;-61
2023/11/19 06:05:06;;;;;;;39.15;18.75;;;;;;;-4.44;67.41;99796.81;5012562;28;20128;-62
2023/11/19 06:07:33;;;;;;;51.90;19.58;;;;;;;-4.35;67.07;99797.78;5012524;28;20064;-61
2023/11/19 06:09:59;;;;;;;36.00;16.42;;;;;;;-4.29;66.11;99793.81;5012224;28;20037;-62
2023/11/19 06:12:24;;;;;;;39.85;18.58;;;;;;;-4.36;66.43;99789.19;5012705;28;20077;-62
2023/11/19 06:14:50;;;;;;;36.70;18.42;;;;;;;-4.35;66.97;99790.84;5012573;28;20042;-63
2023/11/19 06:17:16;;;;;;;35.08;19.17;;;;;;;-4.37;67.32;99787.56;5011031;28;20034;-62
2023/11/19 06:19:42;;;;;;;47.95;18.10;;;;;;;-4.40;67.66;99789.59;5012477;28;20072;-61
2023/11/19 06:22:07;;;;;;;39.35;18.60;;;;;;;-4.31;67.34;99782.81;5010869;28;20136;-61
2023/11/19 06:24:33;;;;;;;31.77;17.17;;;;;;;-4.29;66.61;99784.31;5010782;28;20511;-61
2023/11/19 06:26:59;;;;;;;36.92;17.85;;;;;;;-4.17;66.75;99790.22;5010251;28;20053;-61
2023/11/19 06:29:24;;;;;;;35.03;18.75;;;;;;;-4.18;66.92;99786.78;5010917;28;20038;-61
2023/11/19 06:31:51;;;;;;;45.13;18.95;;;;;;;-4.15;66.58;99778.78;5008674;28;20495;-61
2023/11/19 06:34:17;;;;;;;44.78;20.23;;;;;;;-4.18;67.09;99781.59;5010767;28;20115;-61
2023/11/19 06:36:45;;;;;;;33.78;18.80;;;;;;;-4.07;67.54;99774.69;5010121;28;20101;-60
2023/11/19 06:39:12;;;;;;;38.30;20.80;;;;;;;-3.95;67.74;99781.38;5010260;28;20042;-61
2023/11/19 06:41:39;;;;;;;38.38;18.83;;;;;;;-3.82;65.70;99775.91;5012295;28;20511;-58
2023/11/19 06:44:05;;;;;;;34.13;17.95;;;;;;;-3.70;65.72;99769.69;5010420;28;20037;-60
2023/11/19 06:46:31;;;;;;;33.13;16.88;;;;;;;-3.74;63.86;99773.47;5011234;28;20514;-61
2023/11/19 06:48:57;;;;;;;50.08;16.92;;;;;;;-3.62;64.14;99771.56;5012645;28;20037;-61
2023/11/19 06:51:24;;;;;;;25.67;11.95;;;;;;;-3.57;62.35;99772.00;5012478;28;20041;-62
2023/11/19 06:53:50;;;;;;;19.52;12.55;;;;;;;-3.52;61.72;99770.63;5012590;28;20071;-62
2023/11/19 06:56:23;;;;;;;22.75;13.48;;;;;;;-3.45;61.58;99763.09;5012032;28;20515;-63
2023/11/19 06:58:53;;;;;;;23.95;12.27;;;;;;;-3.40;61.12;99765.31;4994285;28;20499;-62
2023/11/19 07:01:19;;;;;;;21.80;13.30;;;;;;;-3.42;60.92;99766.25;5011780;28;20056;-64
2023/11/19 07:03:48;;;;;;;27.42;14.98;;;;;;;-3.43;61.25;99767.19;5012431;28;20068;-63
2023/11/19 07:06:14;;;;;;;29.40;14.73;;;;;;;-3.38;61.71;99776.31;5012157;28;20146;-64
2023/11/19 07:08:45;;;;;;;28.88;14.18;;;;;;;-3.35;61.64;99769.13;5010251;28;20125;-64
2023/11/19 07:11:13;;;;;;;29.58;13.90;;;;;;;-3.34;62.19;99772.53;4992123;28;20046;-63
2023/11/19 07:13:40;;;;;;;21.25;12.48;;;;;;;-3.33;61.84;99774.97;4992474;28;20042;-62
2023/11/19 07:16:09;;;;;;;26.70;12.90;;;;;;;-3.29;61.12;99767.75;4991981;28;20596;-63
2023/11/19 07:18:35;;;;;;;23.30;13.73;;;;;;;-3.24;61.95;99775.91;4992201;28;20042;-62
2023/11/19 07:21:02;;;;;;;18.50;11.93;;;;;;;-3.22;61.40;99774.81;4992287;28;20054;-63
2023/11/19 07:23:28;;;;;;;30.15;12.73;;;;;;;-3.20;61.72;99777.28;4992553;28;20375;-63
2023/11/19 07:25:54;;;;;;;18.65;10.02;;;;;;;-3.23;60.08;99780.97;4997745;28;20046;-63
2023/11/19 07:28:19;;;;;;;17.52;7.93;;;;;;;-3.24;58.62;99771.53;5011426;28;20046;-63
2023/11/19 07:30:46;;;;;;;11.35;7.65;;;;;;;-3.36;57.83;99771.84;5011798;28;20045;-64
2023/11/19 07:33:13;;;;;;;21.33;9.23;;;;;;;-3.36;58.51;99775.22;5014675;28;20096;-62
2023/11/19 07:35:41;;;;;;;20.27;10.70;;;;;;;-3.25;58.96;99763.91;5022256;28;20525;-64
2023/11/19 07:38:06;;;;;;;23.42;9.48;;;;;;;-3.14;59.32;99775.91;5018891;28;20049;-63
2023/11/19 07:40:32;;;;;;;16.48;9.30;;;;;;;-3.24;59.04;99775.91;5011077;28;20050;-64
2023/11/19 07:42:58;;;;;;;15.73;8.80;;;;;;;-3.31;57.84;99780.03;5027255;28;20115;-64
2023/11/19 07:45:24;;;;;;;15.32;9.07;;;;;;;-3.27;57.83;99782.19;5031011;28;20473;-64
2023/11/19 07:47:51;;;;;;;21.13;9.45;;;;;;;-3.10;58.41;99779.84;5031194;28;20435;-60
2023/11/19 07:50:19;;;;;;;15.95;7.47;;;;;;;-3.02;57.08;99774.78;5023847;28;20102;-63
2023/11/19 07:52:45;;;;;;;21.88;8.07;;;;;;;-2.93;55.83;99770.53;5011066;28;20049;-64
2023/11/19 07:55:10;;;;;;;8.73;6.97;;;;;;;-2.89;56.54;99769.28;5014311;28;20054;-63
2023/11/19 07:57:36;;;;;;;13.77;7.38;;;;;;;-2.91;56.56;99771.19;5013717;28;20084;-63
2023/11/19 08:00:03;;;;;;;19.23;8.88;;;;;;;-2.89;57.00;99771.88;5015265;28;20104;-62
2023/11/19 08:02:39;;;;;;;20.02;8.02;;;;;;;-2.87;56.94;99757.81;5014337;28;20038;-66
2023/11/19 08:05:05;;;;;;;12.60;8.30;;;;;;;-2.81;56.50;99762.44;5015465;28;20054;-63
2023/11/19 08:07:30;;;;;;;18.33;8.95;;;;;;;-2.75;56.98;99761.84;5023443;28;20444;-62
2023/11/19 08:09:57;;;;;;;18.33;8.15;;;;;;;-2.77;56.47;99763.75;5034391;28;20124;-64
2023/11/19 08:12:22;;;;;;;15.25;7.68;;;;;;;-2.80;56.34;99758.84;5014275;28;20384;-61
2023/11/19 08:14:49;;;;;;;16.48;9.25;;;;;;;-2.75;56.90;99763.63;5011058;28;20476;-63
2023/11/19 08:17:15;;;;;;;15.27;8.65;;;;;;;-2.65;56.77;99759.22;5012034;28;20458;-65
2023/11/19 08:19:41;;;;;;;16.67;7.78;;;;;;;-2.78;55.97;99753.53;5013781;28;20104;-64
2023/11/19 08:22:07;;;;;;;13.75;7.40;;;;;;;-2.68;56.20;99753.50;5014997;28;20046;-63
2023/11/19 08:24:35;;;;;;;30.85;8.65;;;;;;;-2.59;55.36;99750.03;5015045;28;20125;-63
2023/11/19 08:27:01;;;;;;;16.60;8.45;;;;;;;-2.53;55.25;99739.91;5013730;28;20048;-62
2023/11/19 08:29:27;;;;;;;18.45;7.60;;;;;;;-2.49;54.41;99731.84;5014696;28;20049;-65
2023/11/19 08:31:53;;;;;;;11.60;7.15;;;;;;;-2.56;54.14;99742.81;5013820;28;20078;-62
2023/11/19 08:34:19;;;;;;;17.27;8.75;;;;;;;-2.56;54.73;99748.00;5012784;28;20080;-63
2023/11/19 08:36:45;;;;;;;11.20;7.85;;;;;;;-2.47;55.03;99741.13;5012705;28;20184;-61
2023/11/19 08:39:10;;;;;;;15.57;7.18;;;;;;;-2.49;54.37;99740.44;5012321;28;20127;-62
2023/11/19 08:41:37;;;;;;;14.80;6.68;;;;;;;-2.49;53.30;99739.63;5014640;28;20076;-60
2023/11/19 08:44:03;;;;;;;11.55;6.70;;;;;;;-2.45;53.77;99740.97;5013297;28;20050;-62
2023/11/19 08:46:29;;;;;;;15.55;7.18;;;;;;;-2.41;53.93;99748.31;5013237;28;20479;-63
2023/11/19 08:48:57;;;;;;;11.15;6.43;;;;;;;-2.48;53.57;99736.88;5014693;28;20042;-63
2023/11/19 08:51:24;;;;;;;10.55;6.70;;;;;;;-2.57;54.20;99746.34;5014648;28;20129;-62
2023/11/19 08:53:50;;;;;;;13.65;7.07;;;;;;;-2.58;54.41;99738.72;5013212;28;20048;-61
2023/11/19 08:56:16;;;;;;;11.88;7.00;;;;;;;-2.53;53.78;99745.09;5014375;28;20411;-61
2023/11/19 08:58:41;;;;;;;20.45;6.18;;;;;;;-2.55;52.87;99736.63;5013669;28;20033;-60
2023/11/19 09:01:07;;;;;;;14.68;6.85;;;;;;;-2.58;53.18;99743.91;5013915;28;20050;-61
2023/11/19 09:03:33;;;;;;;14.32;6.40;;;;;;;-2.51;53.01;99744.94;5014131;28;20038;-62
2023/11/19 09:06:00;;;;;;;16.65;7.25;;;;;;;-2.51;53.13;99742.34;5013083;28;20503;-64
2023/11/19 09:08:29;;;;;;;15.10;6.35;;;;;;;-2.48;52.62;99747.25;5012489;28;20092;-62
2023/11/19 09:10:54;;;;;;;12.73;6.60;;;;;;;-2.48;53.09;99744.66;5013329;28;20053;-61
2023/11/19 09:13:20;;;;;;;13.85;6.43;;;;;;;-2.43;52.24;99745.06;5013378;28;20034;-62
2023/11/19 09:15:46;;;;;;;15.63;6.45;;;;;;;-2.53;51.82;99741.66;4996391;28;20041;-63
2023/11/19 09:18:12;;;;;;;9.43;6.07;;;;;;;-2.60;52.44;99732.84;5008198;28;20065;-61
2023/11/19 09:20:38;;;;;;;12.90;7.00;;;;;;;-2.55;52.50;99718.47;5012077;28;20123;-60
2023/11/19 09:23:05;;;;;;;14.90;6.65;;;;;;;-2.46;52.58;99727.16;5013464;28;20510;-61
2023/11/19 09:25:31;;;;;;;15.98;7.55;;;;;;;-2.51;52.74;99727.59;5012795;28;20061;-62
2023/11/19 09:27:57;;;;;;;23.75;7.10;;;;;;;-2.43;53.22;99731.25;5012803;28;20504;-60
2023/11/19 09:30:22;;;;;;;13.85;6.65;;;;;;;-2.42;53.01;99725.91;5013326;28;20049;-62
2023/11/19 09:32:48;;;;;;;14.27;7.03;;;;;;;-2.46;52.61;99723.75;5012061;28;20058;-59
2023/11/19 09:35:15;;;;;;;11.85;7.05;;;;;;;-2.37;52.75;99722.88;5013272;28;20038;-59
2023/11/19 09:37:43;;;;;;;13.93;6.80;;;;;;;-2.44;52.84;99721.81;5013721;28;20122;-62
2023/11/19 09:40:12;;;;;;;13.52;7.03;;;;;;;-2.38;53.09;99700.47;5012310;28;20507;-62
2023/11/19 09:42:45;;;;;;;16.95;7.45;;;;;;;-2.32;52.97;99700.72;5013878;28;20377;-60
2023/11/19 09:45:14;;;;;;;15.38;7.63;;;;;;;-2.44;52.00;99696.69;5013487;28;20057;-59
2023/11/19 09:47:43;;;;;;;15.85;8.05;;;;;;;-2.53;53.58;99694.94;5013509;28;20042;-59
2023/11/19 09:50:11;;;;;;;16.42;7.75;;;;;;;-2.32;52.94;99697.31;5013020;28;20095;-55
2023/11/19 09:52:37;;;;;;;32.30;8.93;;;;;;;-2.22;52.21;99692.03;5028108;28;20125;-56
2023/11/19 09:55:04;;;;;;;15.82;7.50;;;;;;;-2.16;52.60;99687.06;5010282;28;20534;-60
2023/11/19 09:57:30;;;;;;;16.60;7.65;;;;;;;-2.04;52.41;99685.06;5044905;28;20049;-59
2023/11/19 09:59:58;;;;;;;14.88;8.18;;;;;;;-2.03;51.77;99676.28;5011828;28;20409;-59
2023/11/19 10:02:24;;;;;;;16.38;8.52;;;;;;;-1.95;51.82;99678.16;5013137;28;20046;-60
2023/11/19 10:04:50;;;;;;;15.20;8.48;;;;;;;-1.87;52.05;99680.84;5028306;28;20038;-62
2023/11/19 10:07:15;;;;;;;29.02;10.25;;;;;;;-1.75;50.63;99669.22;5011864;28;20096;-59
2023/11/19 10:09:41;;;;;;;15.23;7.72;;;;;;;-1.71;50.15;99667.13;5012735;28;20046;-62
2023/11/19 10:12:07;;;;;;;16.98;7.45;;;;;;;-1.68;50.08;99672.84;5012771;28;20041;-59
2023/11/19 10:14:36;;;;;;;15.98;7.63;;;;;;;-1.76;49.63;99672.81;5012860;28;20407;-61
2023/11/19 10:17:04;;;;;;;15.25;7.40;;;;;;;-1.81;49.29;99682.81;5044090;28;20133;-61
2023/11/19 10:19:31;;;;;;;12.50;7.35;;;;;;;-1.85;49.49;99671.13;5011679;28;20434;-60
2023/11/19 10:22:03;;;;;;;15.38;8.05;;;;;;;-2.02;50.28;99675.34;5011383;28;20045;-61
2023/11/19 10:24:37;;;;;;;14.45;8.63;;;;;;;-2.07;50.34;99669.78;5044554;28;20053;-60
2023/11/19 10:27:08;;;;;;;19.13;9.20;;;;;;;-2.13;49.93;99662.59;5011257;28;20062;-60
2023/11/19 10:29:40;;;;;;;22.23;9.02;;;;;;;-2.07;50.11;99662.78;4994892;28;20128;-59
2023/11/19 10:32:06;;;;;;;21.33;9.07;;;;;;;-2.11;49.72;99651.09;5012610;28;20109;-57
2023/11/19 10:34:31;;;;;;;17.00;8.18;;;;;;;-2.14;51.12;99653.16;5012501;28;20049;-62
2023/11/19 10:36:57;;;;;;;16.55;8.85;;;;;;;-2.17;51.19;99661.25;5011399;28;20037;-61
2023/11/19 10:39:24;;;;;;;14.13;8.00;;;;;;;-2.23;52.41;99652.28;5012334;28;20043;-62
2023/11/19 10:41:50;;;;;;;15.90;8.57;;;;;;;-2.23;51.45;99646.28;5011479;28;20041;-62
2023/11/19 10:44:38;;;;;;;13.93;7.95;;;;;;;-2.41;51.16;99643.63;5010919;28;20344;-63
2023/11/19 10:47:06;;;;;;;26.75;9.05;;;;;;;-2.57;51.96;99647.72;5012481;28;20145;-62
2023/11/19 10:49:31;;;;;;;27.10;8.90;;;;;;;-2.76;51.47;99640.06;4993766;28;20128;-60
2023/11/19 10:51:58;;;;;;;29.85;9.02;;;;;;;-2.83;52.45;99647.59;5007751;28;20140;-60
2023/11/19 10:54:24;;;;;;;15.50;9.30;;;;;;;-2.83;51.91;99650.19;5010001;28;20041;-58
2023/11/19 10:56:54;;;;;;;24.30;9.70;;;;;;;-2.86;52.21;99654.84;5012021;28;20044;-59
2023/11/19 10:59:21;;;;;;;18.30;9.43;;;;;;;-2.90;52.74;99656.09;5011814;28;20396;-60
2023/11/19 11:01:48;;;;;;;15.75;8.55;;;;;;;-2.90;52.28;99646.53;5010618;28;20419;-63
2023/11/19 11:04:17;;;;;;;17.65;9.80;;;;;;;-2.97;52.56;99643.72;5009073;28;20046;-62
2023/11/19 11:06:43;;;;;;;13.73;8.88;;;;;;;-3.08;52.89;99648.28;5010487;28;20033;-61
2023/11/19 11:09:12;;;;;;;15.27;8.18;;;;;;;-3.13;52.46;99643.50;5006842;28;20522;-62
2023/11/19 11:11:39;;;;;;;23.85;11.15;;;;;;;-3.10;52.98;99655.38;5010636;28;20136;-61
2023/11/19 11:14:05;;;;;;;19.63;9.50;;;;;;;-3.18;52.80;99645.69;5008952;28;20549;-61
2023/11/19 11:16:31;;;;;;;22.65;9.35;;;;;;;-3.25;52.88;99639.47;5011243;28;20034;-58